Time;durP1;ratioP1;P1;durP2;ratioP2;P2;SDS_P1;SDS_P2;PMS_P1;PMS_P2;Temp;Humidity;BMP_temperature;BMP_pressure;BME280_temperature;BME280_humidity;BME280_pressure;Samples;Min_cycle;Max_cycle;Signal;HPM_P1;HPM_P2
2023/02/02 00:00:30;;;;;;;4.28;2.10;;;;;;;6.22;100.00;101556.66;2085576;28;20179;-60
2023/02/02 00:01:31;;;;;;;3.30;1.97;;;;;;;6.19;100.00;101552.69;2081593;28;20534;-60
2023/02/02 00:02:31;;;;;;;3.58;2.13;;;;;;;5.60;100.00;101453.09;2087220;28;20181;-60
2023/02/02 00:03:32;;;;;;;4.90;2.23;;;;;;;5.50;100.00;101435.34;2088251;28;20207;-60
2023/02/02 00:04:34;;;;;;;3.17;1.87;;;;;;;6.23;100.00;101556.28;2080660;28;20687;-60
2023/02/02 00:05:35;;;;;;;3.13;1.80;;;;;;;5.77;100.00;101480.75;2072429;28;20875;-60
2023/02/02 00:06:35;;;;;;;4.97;2.53;;;;;;;6.08;100.00;101538.06;2072065;28;20593;-60
2023/02/02 00:07:36;;;;;;;2.97;1.80;;;;;;;5.73;100.00;101481.88;2071417;28;20251;-60
2023/02/02 00:08:38;;;;;;;3.77;2.10;;;;;;;6.13;100.00;101558.94;2075207;28;20284;-59
2023/02/02 00:09:38;;;;;;;3.78;1.90;;;;;;;6.14;100.00;101555.00;2079552;28;20215;-60
2023/02/02 00:10:39;;;;;;;3.97;2.07;;;;;;;6.17;100.00;101551.50;2079354;28;20210;-60
2023/02/02 00:11:40;;;;;;;3.57;1.90;;;;;;;6.10;100.00;101557.72;2072315;28;20193;-60
2023/02/02 00:12:41;;;;;;;3.72;1.98;;;;;;;6.09;100.00;101547.09;2072234;28;20197;-60
2023/02/02 00:13:41;;;;;;;3.80;2.07;;;;;;;5.87;100.00;101501.31;2072381;28;20227;-60
2023/02/02 00:14:42;;;;;;;4.97;2.10;;;;;;;6.20;100.00;101542.50;2071589;28;20706;-60
2023/02/02 00:15:42;;;;;;;3.30;2.00;;;;;;;6.12;100.00;101543.59;2078570;28;20643;-60
2023/02/02 00:16:45;;;;;;;3.80;1.80;;;;;;;5.78;100.00;101495.28;2092906;28;20183;-60
2023/02/02 00:17:46;;;;;;;2.97;1.60;;;;;;;6.05;100.00;101524.28;2076862;28;20727;-60
2023/02/02 00:18:47;;;;;;;3.50;2.00;;;;;;;6.14;100.00;101546.75;2072352;28;20557;-60
2023/02/02 00:19:48;;;;;;;3.72;2.00;;;;;;;6.08;100.00;101540.81;2071236;28;20672;-60
2023/02/02 00:20:49;;;;;;;3.60;1.90;;;;;;;5.48;100.00;101437.66;2072588;28;20542;-59
2023/02/02 00:21:49;;;;;;;3.00;1.70;;;;;;;6.12;100.00;101541.63;2072011;28;20178;-60
2023/02/02 00:22:49;;;;;;;3.83;2.10;;;;;;;6.11;100.00;101539.25;2072274;28;20205;-60
2023/02/02 00:23:50;;;;;;;3.00;1.90;;;;;;;6.07;100.00;101542.00;2072201;28;20549;-60
2023/02/02 00:24:51;;;;;;;3.90;2.00;;;;;;;6.01;100.00;101543.47;2072308;28;20230;-60
2023/02/02 00:25:51;;;;;;;4.13;1.73;;;;;;;6.01;100.00;101542.72;2071875;28;20192;-60
2023/02/02 00:26:54;;;;;;;5.00;2.20;;;;;;;5.75;100.00;101502.34;2072067;28;20209;-60
2023/02/02 00:27:55;;;;;;;3.65;1.92;;;;;;;5.92;100.00;101514.72;2071479;28;20571;-60
2023/02/02 00:28:56;;;;;;;2.80;1.80;;;;;;;5.98;100.00;101535.19;2072503;28;20190;-60
2023/02/02 00:29:56;;;;;;;3.73;2.00;;;;;;;5.20;100.00;101404.41;2070519;28;20288;-60
2023/02/02 00:30:57;;;;;;;4.00;1.90;;;;;;;5.87;100.00;101501.31;2071018;28;20189;-60
2023/02/02 00:31:57;;;;;;;2.53;1.60;;;;;;;5.78;100.00;101493.34;2071271;28;20557;-59
2023/02/02 00:32:57;;;;;;;3.60;1.80;;;;;;;5.29;100.00;101415.88;2072359;28;20232;-59
2023/02/02 00:33:58;;;;;;;2.50;1.47;;;;;;;5.98;100.00;101516.75;2072085;28;20221;-60
2023/02/02 00:34:59;;;;;;;2.53;1.60;;;;;;;5.97;100.00;101526.16;2072374;28;20606;-60
2023/02/02 00:35:59;;;;;;;2.60;1.60;;;;;;;5.89;100.00;101512.75;2071646;28;20257;-60
2023/02/02 00:37:00;;;;;;;3.87;1.70;;;;;;;5.92;100.00;101514.72;2071869;28;20200;-60
2023/02/02 00:38:00;;;;;;;3.77;1.63;;;;;;;5.52;100.00;101457.72;2088004;28;20195;-60
2023/02/02 00:39:01;;;;;;;2.30;1.40;;;;;;;5.97;100.00;101528.91;2074906;28;20190;-60
2023/02/02 00:40:01;;;;;;;2.60;1.53;;;;;;;6.04;100.00;101519.91;2077019;28;20247;-59
2023/02/02 00:41:02;;;;;;;2.87;1.70;;;;;;;5.96;100.00;101494.34;2080443;28;20590;-60
2023/02/02 00:42:02;;;;;;;3.13;1.70;;;;;;;6.06;100.00;101528.59;2077731;28;20230;-60
2023/02/02 00:43:03;;;;;;;2.70;1.47;;;;;;;6.09;100.00;101517.63;2073839;28;20669;-60
2023/02/02 00:45:24;;;;;;;3.65;1.70;;;;;;;6.14;100.00;101521.97;2073957;28;20816;-59
2023/02/02 00:46:24;;;;;;;2.58;1.63;;;;;;;6.12;100.00;101521.56;2074653;28;20188;-59
2023/02/02 00:47:25;;;;;;;2.60;1.50;;;;;;;6.10;100.00;101515.66;2081061;28;20238;-60
2023/02/02 00:48:25;;;;;;;4.80;2.00;;;;;;;6.15;100.00;101526.34;2082012;28;20180;-59
2023/02/02 00:49:26;;;;;;;2.83;2.03;;;;;;;6.18;100.00;101528.31;2081818;28;20673;-60
2023/02/02 00:50:26;;;;;;;2.77;2.00;;;;;;;6.21;100.00;101524.81;2075073;28;20188;-60
2023/02/02 00:51:27;;;;;;;3.57;2.10;;;;;;;5.69;100.00;101434.34;2078679;28;20238;-60
2023/02/02 00:52:27;;;;;;;4.77;2.43;;;;;;;6.20;100.00;101520.47;2077811;28;20676;-60
2023/02/02 00:53:28;;;;;;;3.47;2.57;;;;;;;6.19;100.00;101525.19;2076184;28;20181;-60
2023/02/02 00:54:28;;;;;;;3.83;2.27;;;;;;;6.13;100.00;101512.94;2080589;28;20188;-60
2023/02/02 00:55:28;;;;;;;4.93;2.80;;;;;;;6.14;100.00;101506.25;2073602;28;20226;-60
2023/02/02 00:56:29;;;;;;;3.87;2.40;;;;;;;6.21;100.00;101520.06;2073433;28;20217;-60
2023/02/02 00:57:29;;;;;;;4.07;2.70;;;;;;;6.21;100.00;101513.78;2080425;28;20341;-60
2023/02/02 00:58:30;;;;;;;4.80;2.70;;;;;;;5.98;100.00;101477.41;2081031;28;20478;-60
2023/02/02 00:59:30;;;;;;;4.53;3.03;;;;;;;6.19;100.00;101516.13;2078005;28;20207;-60
2023/02/02 01:00:31;;;;;;;5.23;2.80;;;;;;;6.17;100.00;101515.72;2081670;28;20191;-60
2023/02/02 01:01:31;;;;;;;4.93;2.53;;;;;;;6.12;100.00;101508.63;2081744;28;20190;-60
2023/02/02 01:02:33;;;;;;;5.00;2.97;;;;;;;5.23;100.00;101362.41;2081417;28;20234;-60
2023/02/02 01:03:34;;;;;;;4.85;2.80;;;;;;;6.19;100.00;101514.16;2081727;28;20676;-60
2023/02/02 01:04:34;;;;;;;5.37;2.87;;;;;;;6.12;100.00;101511.38;2082030;28;20572;-60
2023/02/02 01:05:35;;;;;;;5.20;2.97;;;;;;;6.12;100.00;101516.06;2081613;28;20214;-60
2023/02/02 01:06:36;;;;;;;3.63;2.53;;;;;;;6.12;100.00;101510.56;2081504;28;20542;-60
2023/02/02 01:07:36;;;;;;;4.43;2.83;;;;;;;6.15;100.00;101513.34;2081099;28;20620;-60
2023/02/02 01:08:37;;;;;;;4.43;3.17;;;;;;;6.14;100.00;101511.75;2085183;28;20677;-60
2023/02/02 01:09:37;;;;;;;4.67;2.73;;;;;;;6.14;100.00;101516.47;2080366;28;20725;-60
2023/02/02 01:10:38;;;;;;;5.00;2.97;;;;;;;6.15;100.00;101518.84;2073637;28;20215;-60
2023/02/02 01:11:38;;;;;;;4.53;2.90;;;;;;;5.45;100.00;101401.91;2073703;28;20204;-60
2023/02/02 01:12:39;;;;;;;4.17;2.77;;;;;;;6.04;100.00;101501.47;2073507;28;20204;-60
2023/02/02 01:13:39;;;;;;;5.80;3.03;;;;;;;5.68;100.00;101435.47;2073570;28;20620;-59
2023/02/02 01:14:40;;;;;;;4.93;3.00;;;;;;;6.15;100.00;101516.09;2073553;28;20459;-60
2023/02/02 01:15:40;;;;;;;3.93;2.80;;;;;;;6.15;100.00;101524.34;2073357;28;20565;-60
2023/02/02 01:16:41;;;;;;;5.43;3.10;;;;;;;6.12;100.00;101516.06;2073602;28;20183;-59
2023/02/02 01:17:41;;;;;;;4.70;3.10;;;;;;;6.13;100.00;101529.47;2072783;28;20590;-60
2023/02/02 01:18:42;;;;;;;5.37;2.93;;;;;;;6.13;100.00;101525.91;2073547;28;20534;-59
2023/02/02 01:19:42;;;;;;;4.70;2.70;;;;;;;6.11;100.00;101531.00;2073235;28;20174;-60
2023/02/02 01:20:43;;;;;;;7.17;3.17;;;;;;;6.09;100.00;101525.06;2081878;28;20325;-59
2023/02/02 01:21:43;;;;;;;5.83;3.07;;;;;;;6.08;100.00;101518.00;2081784;28;20184;-59
2023/02/02 01:22:44;;;;;;;5.77;3.10;;;;;;;6.01;100.00;101515.97;2074749;28;20221;-59
2023/02/02 01:23:45;;;;;;;4.30;3.00;;;;;;;5.61;100.00;101474.72;2078303;28;20183;-59
2023/02/02 01:24:45;;;;;;;3.77;2.63;;;;;;;5.77;100.00;101482.72;2081071;28;20200;-59
2023/02/02 01:25:55;;;;;;;4.17;2.80;;;;;;;6.05;100.00;101532.53;2078006;28;20650;-59
2023/02/02 01:26:56;;;;;;;5.18;3.08;;;;;;;4.69;100.00;101317.53;2073276;28;20250;-59
2023/02/02 01:27:56;;;;;;;5.27;3.20;;;;;;;5.51;100.00;101447.91;2072651;28;20180;-60
2023/02/02 01:28:56;;;;;;;6.10;3.30;;;;;;;6.02;100.00;101530.53;2073610;28;20645;-59
2023/02/02 01:29:57;;;;;;;12.30;4.20;;;;;;;6.06;100.00;101521.13;2072807;28;20629;-59
2023/02/02 01:30:57;;;;;;;9.33;3.43;;;;;;;5.86;100.00;101492.28;2073601;28;20270;-59
2023/02/02 01:31:58;;;;;;;9.73;4.27;;;;;;;6.04;100.00;101520.72;2073411;28;20227;-59
2023/02/02 01:32:58;;;;;;;10.83;3.70;;;;;;;6.01;100.00;101526.19;2073297;28;20228;-59
2023/02/02 01:33:59;;;;;;;5.03;2.93;;;;;;;5.64;100.00;101473.94;2073257;28;20219;-60
2023/02/02 01:34:59;;;;;;;5.77;3.20;;;;;;;5.95;100.00;101519.47;2073646;28;20662;-59
2023/02/02 01:36:04;;;;;;;5.67;3.37;;;;;;;5.93;100.00;101527.28;2072873;28;20174;-60
2023/02/02 01:37:05;;;;;;;5.72;2.85;;;;;;;5.94;100.00;101524.16;2074336;28;20340;-60
2023/02/02 01:38:05;;;;;;;5.07;2.83;;;;;;;5.93;100.00;101524.53;2081374;28;20184;-60
2023/02/02 01:39:06;;;;;;;4.67;3.07;;;;;;;5.92;100.00;101526.50;2081721;28;20181;-60
2023/02/02 01:40:07;;;;;;;4.40;2.67;;;;;;;5.51;100.00;101469.09;2080747;28;20192;-59
2023/02/02 01:41:13;;;;;;;5.05;2.70;;;;;;;5.26;100.00;101440.56;2081594;28;20192;-59
2023/02/02 01:42:19;;;;;;;5.13;2.83;;;;;;;5.86;100.00;101528.03;2081543;28;20566;-59
2023/02/02 01:43:44;;;;;;;5.47;2.97;;;;;;;5.77;100.00;101526.72;2081486;28;20542;-60
2023/02/02 01:44:51;;;;;;;6.40;3.28;;;;;;;5.74;100.00;101513.75;2081552;28;20191;-59
2023/02/02 01:45:53;;;;;;;4.97;2.92;;;;;;;5.76;100.00;101519.63;2088797;28;20230;-59
2023/02/02 01:46:53;;;;;;;4.25;2.95;;;;;;;5.28;100.00;101452.00;2076598;28;20273;-59
2023/02/02 01:47:58;;;;;;;5.13;3.00;;;;;;;5.63;100.00;101507.31;2083193;28;20680;-59
2023/02/02 01:49:05;;;;;;;4.80;2.95;;;;;;;5.70;100.00;101526.66;2073319;28;20652;-59
2023/02/02 01:50:08;;;;;;;4.88;2.90;;;;;;;5.64;100.00;101508.91;2076941;28;20265;-59
2023/02/02 01:51:14;;;;;;;5.53;3.30;;;;;;;5.62;100.00;101514.00;2081445;28;20717;-60
2023/02/02 01:52:18;;;;;;;5.00;2.85;;;;;;;5.66;100.00;101515.63;2081421;28;20279;-60
2023/02/02 01:53:19;;;;;;;4.22;2.47;;;;;;;4.17;100.00;101268.31;2080443;28;20180;-59
2023/02/02 01:54:43;;;;;;;4.95;2.70;;;;;;;5.38;100.00;101460.34;2081092;28;20629;-59
2023/02/02 01:55:47;;;;;;;4.50;2.40;;;;;;;5.71;100.00;101506.22;2080902;28;20637;-60
2023/02/02 01:56:56;;;;;;;4.85;2.90;;;;;;;5.72;100.00;101507.81;2081352;28;20662;-60
2023/02/02 01:58:01;;;;;;;4.15;2.53;;;;;;;5.19;100.00;101452.25;2080539;28;20195;-59
2023/02/02 01:59:03;;;;;;;5.05;2.63;;;;;;;5.37;100.00;101449.72;2081616;28;20629;-59
2023/02/02 02:00:08;;;;;;;4.25;2.25;;;;;;;5.21;100.00;101416.16;2080517;28;20234;-59
2023/02/02 02:01:10;;;;;;;3.55;2.40;;;;;;;5.83;100.00;101520.53;2081377;28;20719;-60
2023/02/02 02:02:11;;;;;;;3.80;2.53;;;;;;;5.85;100.00;101509.16;2081338;28;20185;-60
2023/02/02 02:03:15;;;;;;;3.33;2.10;;;;;;;5.82;100.00;101509.91;2081177;28;20557;-60
2023/02/02 02:04:17;;;;;;;3.85;2.20;;;;;;;5.46;100.00;101458.44;2081248;28;20187;-60
2023/02/02 02:05:24;;;;;;;3.75;1.98;;;;;;;5.43;100.00;101465.50;2081597;28;20287;-59
2023/02/02 02:06:25;;;;;;;3.17;1.98;;;;;;;5.90;100.00;101517.06;2087238;28;20187;-59
2023/02/02 02:07:26;;;;;;;3.60;2.13;;;;;;;5.84;100.00;101513.06;2083334;28;20258;-60
2023/02/02 02:08:30;;;;;;;3.40;2.10;;;;;;;5.68;100.00;101483.03;2076822;28;20186;-59
2023/02/02 02:09:30;;;;;;;3.03;2.10;;;;;;;5.91;100.00;101519.44;2072486;28;20243;-60
2023/02/02 02:10:30;;;;;;;3.77;1.97;;;;;;;5.90;100.00;101528.06;2072924;28;20280;-60
2023/02/02 02:11:33;;;;;;;4.83;2.20;;;;;;;5.93;100.00;101528.09;2073156;28;20562;-60
2023/02/02 02:12:33;;;;;;;3.85;1.80;;;;;;;5.97;100.00;101523.41;2073435;28;20193;-59
2023/02/02 02:16:41;;;;;;;4.65;2.10;;;;;;;5.96;100.00;101516.34;2078714;28;20629;-60
2023/02/02 02:17:51;;;;;;;3.20;2.08;;;;;;;6.00;100.00;101525.41;2072227;28;20177;-60
2023/02/02 02:19:26;;;;;;;2.45;1.80;;;;;;;6.02;100.00;101530.53;2073218;28;20640;-60
2023/02/02 02:26:33;;;;;;;3.50;1.90;;;;;;;6.03;100.00;101546.66;2059515;28;20761;-60
2023/02/02 02:28:10;;;;;;;3.20;2.00;;;;;;;6.05;100.00;101536.06;2080245;28;20270;-60
2023/02/02 02:29:48;;;;;;;3.60;1.90;;;;;;;6.07;100.00;101541.19;2085149;28;20188;-60
2023/02/02 02:31:16;;;;;;;3.35;1.92;;;;;;;6.08;100.00;101543.56;2081362;28;20654;-59
2023/02/02 02:32:40;;;;;;;2.88;1.95;;;;;;;5.60;100.00;101466.84;2080958;28;20190;-60
2023/02/02 02:33:56;;;;;;;4.10;1.95;;;;;;;6.12;100.00;101551.84;2084198;28;20203;-60
2023/02/02 02:34:56;;;;;;;3.50;1.80;;;;;;;6.16;100.00;101558.19;2085393;28;20674;-59
2023/02/02 02:36:08;;;;;;;4.27;2.00;;;;;;;6.19;100.00;101554.66;2083626;28;20649;-59
2023/02/02 02:37:15;;;;;;;4.72;1.90;;;;;;;6.22;100.00;101549.19;2085152;28;20195;-60
2023/02/02 02:38:21;;;;;;;3.20;2.03;;;;;;;5.91;100.00;101500.19;2084109;28;20350;-60
2023/02/02 02:39:34;;;;;;;3.53;2.00;;;;;;;5.61;100.00;101447.22;2086397;28;20226;-60
2023/02/02 02:40:40;;;;;;;4.00;2.00;;;;;;;6.34;100.00;101546.13;2088242;28;20188;-60
2023/02/02 02:41:47;;;;;;;5.68;2.40;;;;;;;6.36;100.00;101541.03;2088073;28;20172;-59
2023/02/02 02:43:10;;;;;;;4.22;2.08;;;;;;;6.11;100.00;101501.50;2083691;28;20545;-59
2023/02/02 02:44:15;;;;;;;3.78;2.10;;;;;;;6.38;100.00;101537.91;2084056;28;20284;-60
2023/02/02 02:45:17;;;;;;;4.95;2.30;;;;;;;6.40;100.00;101536.34;2080264;28;20204;-59
2023/02/02 02:46:19;;;;;;;3.17;2.10;;;;;;;5.75;100.00;101438.31;2077101;28;20693;-60
2023/02/02 02:47:21;;;;;;;4.28;2.10;;;;;;;6.44;100.00;101539.13;2071987;28;20798;-59
2023/02/02 02:48:21;;;;;;;4.35;2.28;;;;;;;6.45;100.00;101535.19;2076288;28;20192;-59
2023/02/02 02:49:22;;;;;;;3.10;1.70;;;;;;;6.16;100.00;101486.63;2081005;28;20188;-60
2023/02/02 02:50:22;;;;;;;6.47;2.07;;;;;;;6.47;100.00;101533.63;2072497;28;20197;-60
2023/02/02 02:51:42;;;;;;;3.27;1.90;;;;;;;6.48;100.00;101535.25;2072831;28;20259;-59
2023/02/02 02:52:45;;;;;;;3.65;1.80;;;;;;;6.50;100.00;101540.34;2073000;28;20200;-60
2023/02/02 02:53:46;;;;;;;3.90;2.05;;;;;;;6.52;100.00;101527.00;2080349;28;20734;-60
2023/02/02 02:54:50;;;;;;;3.50;1.90;;;;;;;6.39;100.00;101529.28;2081917;28;20699;-60
2023/02/02 02:56:06;;;;;;;4.55;1.92;;;;;;;6.45;100.00;101521.44;2079531;28;20231;-60
2023/02/02 02:57:22;;;;;;;5.10;2.10;;;;;;;6.51;100.00;101531.69;2078796;28;20674;-60
2023/02/02 02:58:50;;;;;;;2.88;1.88;;;;;;;6.48;100.00;101534.44;2080783;28;20347;-61
2023/02/02 03:00:14;;;;;;;3.30;1.95;;;;;;;6.49;100.00;101530.50;2071824;28;20222;-60
2023/02/02 03:01:29;;;;;;;4.07;2.10;;;;;;;6.47;100.00;101533.63;2080667;28;20401;-61
2023/02/02 03:02:48;;;;;;;3.10;1.85;;;;;;;6.47;100.00;101530.88;2080708;28;20234;-60
2023/02/02 03:04:15;;;;;;;3.85;2.22;;;;;;;6.45;100.00;101524.19;2072704;28;20193;-60
2023/02/02 03:05:36;;;;;;;3.83;1.73;;;;;;;6.44;100.00;101531.66;2080284;28;20710;-60
2023/02/02 03:06:42;;;;;;;3.33;1.70;;;;;;;6.44;100.00;101533.63;2072268;28;20244;-59
2023/02/02 03:07:46;;;;;;;3.40;1.70;;;;;;;6.41;100.00;101528.88;2072050;28;20673;-60
2023/02/02 03:08:54;;;;;;;3.42;2.10;;;;;;;6.39;100.00;101532.03;2088563;28;20198;-60
2023/02/02 03:09:57;;;;;;;4.15;2.20;;;;;;;6.42;100.00;101538.72;2080495;28;20194;-61
2023/02/02 03:11:01;;;;;;;3.20;1.77;;;;;;;6.17;100.00;101485.44;2081088;28;20231;-61
2023/02/02 03:12:02;;;;;;;3.58;2.00;;;;;;;6.48;100.00;101546.25;2080713;28;20228;-60
2023/02/02 03:13:07;;;;;;;3.90;1.90;;;;;;;6.52;100.00;101527.00;2080765;28;20580;-61
2023/02/02 03:14:08;;;;;;;3.38;1.88;;;;;;;6.54;100.00;101527.41;2080538;28;20227;-60
2023/02/02 03:15:09;;;;;;;3.05;1.60;;;;;;;6.29;100.00;101480.44;2080684;28;20193;-60
2023/02/02 03:16:10;;;;;;;2.92;1.85;;;;;;;6.51;100.00;101522.69;2080304;28;20657;-61
2023/02/02 03:17:10;;;;;;;3.70;1.80;;;;;;;5.95;100.00;101423.94;2079997;28;20645;-60
2023/02/02 03:18:14;;;;;;;3.67;2.00;;;;;;;6.50;100.00;101518.31;2080731;28;20235;-60
2023/02/02 03:19:14;;;;;;;4.72;1.83;;;;;;;6.52;100.00;101514.00;2080787;28;20177;-60
2023/02/02 03:20:15;;;;;;;4.50;2.00;;;;;;;6.53;100.00;101512.06;2079940;28;20203;-60
2023/02/02 03:21:15;;;;;;;5.93;2.10;;;;;;;6.19;100.00;101470.13;2080893;28;20211;-60
2023/02/02 03:22:16;;;;;;;5.10;1.70;;;;;;;6.07;100.00;101437.41;2080775;28;20199;-60
2023/02/02 03:23:17;;;;;;;3.23;1.80;;;;;;;6.47;100.00;101506.09;2076779;28;20232;-61
2023/02/02 03:24:17;;;;;;;3.40;1.87;;;;;;;6.29;100.00;101482.38;2072435;28;20182;-60
2023/02/02 03:25:18;;;;;;;4.33;1.97;;;;;;;6.26;100.00;101492.19;2074234;28;20276;-60
2023/02/02 03:26:19;;;;;;;4.87;1.83;;;;;;;6.42;100.00;101506.47;2087176;28;20242;-60
2023/02/02 03:27:19;;;;;;;4.18;1.92;;;;;;;6.05;100.00;101456.25;2079380;28;20241;-60
2023/02/02 03:28:21;;;;;;;3.17;2.00;;;;;;;6.36;100.00;101490.72;2072530;28;20476;-60
2023/02/02 03:29:22;;;;;;;4.78;2.00;;;;;;;6.41;100.00;101507.63;2072284;28;20271;-60
2023/02/02 03:30:23;;;;;;;3.60;2.00;;;;;;;6.34;100.00;101510.34;2072089;28;20201;-60
2023/02/02 03:31:26;;;;;;;4.37;2.00;;;;;;;6.32;100.00;101517.41;2077209;28;20198;-60
2023/02/02 03:32:26;;;;;;;4.15;2.00;;;;;;;6.37;100.00;101506.03;2084499;28;20244;-60
2023/02/02 03:33:27;;;;;;;4.00;1.97;;;;;;;5.59;100.00;101399.28;2086154;28;20180;-60
2023/02/02 03:34:27;;;;;;;4.37;1.87;;;;;;;5.69;100.00;101404.06;2082035;28;20185;-60
2023/02/02 03:35:28;;;;;;;3.83;2.10;;;;;;;6.33;100.00;101502.47;2088341;28;20197;-60
2023/02/02 03:36:29;;;;;;;4.70;1.80;;;;;;;5.64;100.00;101383.19;2080461;28;20184;-60
2023/02/02 03:37:29;;;;;;;3.77;1.97;;;;;;;6.37;100.00;101508.78;2087335;28;20207;-60
2023/02/02 03:38:29;;;;;;;3.37;1.87;;;;;;;6.36;100.00;101499.72;2082665;28;20510;-60
2023/02/02 03:39:30;;;;;;;3.77;1.87;;;;;;;6.33;100.00;101496.97;2085147;28;20257;-61
2023/02/02 03:40:30;;;;;;;3.07;2.00;;;;;;;6.20;100.00;101481.94;2084757;28;20208;-60
2023/02/02 03:41:31;;;;;;;3.93;2.10;;;;;;;6.29;100.00;101488.69;2080598;28;20241;-60
2023/02/02 03:42:31;;;;;;;3.93;1.80;;;;;;;5.74;100.00;101400.97;2086856;28;20198;-60
2023/02/02 03:43:31;;;;;;;3.60;1.87;;;;;;;6.29;100.00;101487.88;2080761;28;20612;-60
2023/02/02 03:44:32;;;;;;;4.83;2.53;;;;;;;6.28;100.00;101489.06;2080056;28;20332;-61
2023/02/02 03:45:36;;;;;;;4.00;1.90;;;;;;;6.24;100.00;101486.28;2080443;28;20193;-60
2023/02/02 03:46:36;;;;;;;4.10;1.90;;;;;;;6.27;100.00;101482.78;2079271;28;20184;-61
2023/02/02 03:47:36;;;;;;;3.47;1.80;;;;;;;6.28;100.00;101480.81;2071936;28;20177;-60
2023/02/02 03:48:37;;;;;;;4.13;2.30;;;;;;;6.25;100.00;101479.59;2077941;28;20187;-60
2023/02/02 03:49:38;;;;;;;3.97;1.90;;;;;;;6.24;100.00;101488.25;2079703;28;20223;-61
2023/02/02 03:50:38;;;;;;;7.87;2.20;;;;;;;6.22;100.00;101483.13;2074790;28;20425;-60
2023/02/02 03:51:39;;;;;;;3.57;1.90;;;;;;;5.18;100.00;101321.53;2076952;28;20314;-61
2023/02/02 03:52:39;;;;;;;3.77;1.80;;;;;;;6.16;100.00;101486.63;2077221;28;20601;-60
2023/02/02 03:53:43;;;;;;;3.10;1.80;;;;;;;5.56;100.00;101406.31;2071633;28;20212;-60
2023/02/02 03:54:43;;;;;;;4.22;2.00;;;;;;;6.08;100.00;101482.22;2073320;28;20174;-60
2023/02/02 03:55:44;;;;;;;4.70;1.73;;;;;;;6.00;100.00;101473.13;2079505;28;20266;-60
2023/02/02 03:56:44;;;;;;;3.40;1.80;;;;;;;6.04;100.00;101486.91;2071893;28;20185;-60
2023/02/02 03:57:44;;;;;;;3.63;1.90;;;;;;;5.91;100.00;101461.66;2078358;28;20673;-61
2023/02/02 03:58:46;;;;;;;3.27;2.03;;;;;;;6.05;100.00;101483.78;2080564;28;20276;-60
2023/02/02 03:59:46;;;;;;;4.22;2.00;;;;;;;6.05;100.00;101483.78;2082095;28;20208;-61
2023/02/02 04:00:47;;;;;;;4.47;2.20;;;;;;;5.94;100.00;101485.66;2079807;28;20776;-60
2023/02/02 04:01:47;;;;;;;4.77;1.83;;;;;;;5.91;100.00;101480.94;2074098;28;20446;-61
2023/02/02 04:02:48;;;;;;;3.93;2.20;;;;;;;5.94;100.00;101482.13;2080149;28;20201;-60
2023/02/02 04:03:49;;;;;;;4.07;2.10;;;;;;;5.93;100.00;101477.78;2079818;28;20679;-60
2023/02/02 04:04:49;;;;;;;3.13;2.00;;;;;;;5.90;100.00;101476.56;2072521;28;20185;-60
2023/02/02 04:05:50;;;;;;;4.93;2.00;;;;;;;5.89;100.00;101482.47;2071681;28;20207;-60
2023/02/02 04:06:50;;;;;;;4.40;2.30;;;;;;;5.79;100.00;101478.41;2072385;28;20263;-60
2023/02/02 04:07:51;;;;;;;5.47;2.10;;;;;;;5.82;100.00;101485.16;2076595;28;20280;-60
2023/02/02 04:08:51;;;;;;;2.90;2.10;;;;;;;5.76;100.00;101470.94;2080574;28;20199;-60
2023/02/02 04:09:52;;;;;;;3.50;2.03;;;;;;;5.74;100.00;101469.72;2076725;28;20614;-60
2023/02/02 04:10:52;;;;;;;4.10;2.30;;;;;;;5.69;100.00;101470.09;2073847;28;20184;-60
2023/02/02 04:11:53;;;;;;;2.87;1.80;;;;;;;5.60;100.00;101477.84;2080435;28;20677;-60
2023/02/02 04:12:53;;;;;;;5.50;2.77;;;;;;;5.10;100.00;101401.53;2080702;28;20255;-60
2023/02/02 04:13:54;;;;;;;4.40;2.10;;;;;;;5.54;100.00;101457.38;2080375;28;20333;-60
2023/02/02 04:14:54;;;;;;;3.70;2.10;;;;;;;5.42;100.00;101471.34;2080480;28;20203;-60
2023/02/02 04:15:56;;;;;;;3.97;2.03;;;;;;;5.43;100.00;101465.50;2079784;28;20196;-61
2023/02/02 04:16:57;;;;;;;3.75;1.90;;;;;;;5.44;100.00;101467.06;2079572;28;20651;-60
2023/02/02 04:17:57;;;;;;;3.20;2.07;;;;;;;5.46;100.00;101467.50;2079687;28;20214;-60
2023/02/02 04:18:58;;;;;;;3.47;1.90;;;;;;;5.42;100.00;101469.41;2080513;28;20254;-60
2023/02/02 04:19:58;;;;;;;5.60;2.40;;;;;;;5.39;100.00;101466.63;2086883;28;20193;-61
2023/02/02 04:21:00;;;;;;;3.90;2.40;;;;;;;4.93;100.00;101388.41;2088352;28;20263;-61
2023/02/02 04:22:00;;;;;;;4.60;2.38;;;;;;;5.40;100.00;101463.50;2080479;28;20250;-60
2023/02/02 04:23:01;;;;;;;4.27;2.30;;;;;;;5.34;100.00;101465.00;2080475;28;20242;-60
2023/02/02 04:24:01;;;;;;;4.57;2.40;;;;;;;5.31;100.00;101476.75;2085049;28;20493;-60
2023/02/02 04:25:02;;;;;;;3.33;2.60;;;;;;;4.74;100.00;101397.63;2083642;28;20674;-60
2023/02/02 04:26:03;;;;;;;4.73;2.40;;;;;;;4.63;100.00;101382.97;2082171;28;20631;-60
2023/02/02 04:27:03;;;;;;;5.23;2.60;;;;;;;5.04;100.00;101439.56;2085862;28;20194;-60
2023/02/02 04:28:04;;;;;;;4.17;2.60;;;;;;;5.21;100.00;101465.63;2081058;28;20245;-60
2023/02/02 04:29:04;;;;;;;4.23;2.33;;;;;;;5.23;100.00;101471.56;2088933;28;20181;-60
2023/02/02 04:30:06;;;;;;;4.33;2.70;;;;;;;4.75;100.00;101382.72;2079781;28;20222;-60
2023/02/02 04:31:06;;;;;;;3.75;2.38;;;;;;;5.25;100.00;101471.97;2087464;28;20214;-60
2023/02/02 04:32:07;;;;;;;3.93;2.33;;;;;;;4.70;100.00;101388.53;2082781;28;20219;-60
2023/02/02 04:33:07;;;;;;;3.63;2.13;;;;;;;5.11;100.00;101442.38;2084920;28;20189;-60
2023/02/02 04:34:07;;;;;;;6.40;2.63;;;;;;;5.26;100.00;101466.09;2085200;28;20220;-60
2023/02/02 04:35:08;;;;;;;4.23;2.30;;;;;;;5.27;100.00;101473.16;2082512;28;20183;-60
2023/02/02 04:36:09;;;;;;;4.77;2.50;;;;;;;4.60;100.00;101383.72;2086982;28;20216;-60
2023/02/02 04:37:10;;;;;;;4.20;2.57;;;;;;;4.90;100.00;101425.66;2079801;28;20190;-60
2023/02/02 04:38:11;;;;;;;4.18;2.30;;;;;;;4.63;100.00;101373.94;2080021;28;20434;-61
2023/02/02 04:39:12;;;;;;;4.70;2.50;;;;;;;5.24;100.00;101473.91;2073243;28;20633;-60
2023/02/02 04:40:13;;;;;;;4.37;2.63;;;;;;;5.22;100.00;101465.25;2071676;28;20193;-60
2023/02/02 04:41:13;;;;;;;4.63;2.40;;;;;;;5.19;100.00;101471.50;2071582;28;20199;-60
2023/02/02 04:42:14;;;;;;;3.77;2.50;;;;;;;5.24;100.00;101475.88;2075123;28;20955;-60
2023/02/02 04:43:15;;;;;;;4.33;2.50;;;;;;;5.23;100.00;101474.31;2082064;28;20290;-60
2023/02/02 04:44:15;;;;;;;4.03;2.38;;;;;;;5.17;100.00;101479.34;2086451;28;20569;-60
2023/02/02 04:45:16;;;;;;;5.37;2.63;;;;;;;5.22;100.00;101479.00;2072394;28;20185;-60
2023/02/02 04:46:16;;;;;;;3.67;2.20;;;;;;;5.20;100.00;101475.06;2071625;28;20654;-60
2023/02/02 04:47:17;;;;;;;3.00;2.13;;;;;;;5.24;100.00;101481.38;2071264;28;20193;-61
2023/02/02 04:48:17;;;;;;;4.63;2.57;;;;;;;5.21;100.00;101474.69;2075026;28;20616;-60
2023/02/02 04:49:18;;;;;;;3.87;2.20;;;;;;;5.21;100.00;101491.16;2080113;28;20305;-61
2023/02/02 04:50:18;;;;;;;5.10;2.60;;;;;;;5.16;100.00;101482.47;2079666;28;20203;-60
2023/02/02 04:51:19;;;;;;;3.77;2.33;;;;;;;5.18;100.00;101483.66;2080229;28;20257;-60
2023/02/02 04:52:19;;;;;;;4.50;2.40;;;;;;;4.65;100.00;101419.06;2086250;28;20197;-60
2023/02/02 04:53:19;;;;;;;6.53;2.40;;;;;;;5.19;100.00;101477.00;2079862;28;20181;-60
2023/02/02 04:54:20;;;;;;;4.33;2.33;;;;;;;4.64;100.00;101400.22;2080508;28;20598;-60
2023/02/02 04:55:21;;;;;;;4.47;2.50;;;;;;;5.28;100.00;101494.00;2080336;28;20231;-60
2023/02/02 04:56:22;;;;;;;4.10;2.78;;;;;;;5.29;100.00;101492.03;2079491;28;20191;-60
2023/02/02 04:57:22;;;;;;;4.47;3.10;;;;;;;5.33;100.00;101487.38;2079657;28;20231;-60
2023/02/02 04:58:23;;;;;;;3.90;2.67;;;;;;;5.28;100.00;101491.25;2080232;28;20183;-60
2023/02/02 04:59:24;;;;;;;4.97;2.80;;;;;;;5.35;100.00;101493.28;2079936;28;20218;-60
2023/02/02 05:00:24;;;;;;;4.93;2.70;;;;;;;5.36;100.00;101497.59;2077831;28;20187;-60
2023/02/02 05:01:25;;;;;;;4.53;2.90;;;;;;;5.37;100.00;101491.75;2072625;28;20182;-61
2023/02/02 05:02:25;;;;;;;4.60;2.73;;;;;;;5.38;100.00;101496.06;2080526;28;20186;-61